createdAt,value
2018-10-19T00:01:47.392Z,62.08
2018-10-19T00:04:15.806Z,61.60
2018-10-19T00:06:44.104Z,62.22
2018-10-19T00:09:12.926Z,61.99
2018-10-19T00:11:41.239Z,62.12
2018-10-19T00:14:09.542Z,62.32
2018-10-19T00:16:37.901Z,61.80
2018-10-19T00:19:06.598Z,62.42
2018-10-19T00:21:34.986Z,62.41
2018-10-19T00:24:03.502Z,62.28
2018-10-19T00:26:32.084Z,62.34
2018-10-19T00:29:00.461Z,62.41
2018-10-19T00:31:28.863Z,62.62
2018-10-19T00:33:57.172Z,62.49
2018-10-19T00:36:25.587Z,62.38
2018-10-19T00:38:53.954Z,62.36
2018-10-19T00:41:22.307Z,62.34
2018-10-19T00:43:50.701Z,62.19
2018-10-19T00:46:19.016Z,62.21
2018-10-19T00:48:47.270Z,62.43
2018-10-19T00:51:15.704Z,62.67
2018-10-19T00:53:44.013Z,62.45
2018-10-19T00:56:12.284Z,62.81
2018-10-19T00:58:40.569Z,62.88
2018-10-19T01:01:08.881Z,62.85
2018-10-19T01:03:37.370Z,63.29
2018-10-19T01:06:05.804Z,63.16
2018-10-19T01:08:34.128Z,63.14
2018-10-19T01:11:02.454Z,62.92
2018-10-19T01:13:30.844Z,63.07
2018-10-19T01:15:59.136Z,63.00
2018-10-19T01:18:27.445Z,62.59
2018-10-19T01:20:56.164Z,63.01
2018-10-19T01:23:24.568Z,63.12
2018-10-19T01:25:52.853Z,63.45
2018-10-19T01:28:21.209Z,63.36
2018-10-19T01:30:49.604Z,63.06
2018-10-19T01:33:18.014Z,62.94
2018-10-19T01:35:46.287Z,63.20
2018-10-19T01:38:14.595Z,63.31
2018-10-19T01:40:42.955Z,63.07
2018-10-19T01:43:11.258Z,62.80
2018-10-19T01:45:43.819Z,63.49
2018-10-19T01:48:12.141Z,63.61
2018-10-19T01:50:40.485Z,63.80
2018-10-19T01:53:08.813Z,63.79
2018-10-19T01:55:37.185Z,63.76
2018-10-19T01:58:05.903Z,64.00
2018-10-19T02:00:34.248Z,64.19
2018-10-19T02:03:02.658Z,63.96
2018-10-19T02:05:31.111Z,63.84
2018-10-19T02:07:59.455Z,63.93
2018-10-19T02:10:27.758Z,64.05
2018-10-19T02:12:56.137Z,63.74
2018-10-19T02:15:24.481Z,64.14
2018-10-19T02:17:52.886Z,64.12
2018-10-19T02:20:21.179Z,64.04
2018-10-19T02:22:49.637Z,64.74
2018-10-19T02:25:18.031Z,64.13
2018-10-19T02:27:46.486Z,64.28
2018-10-19T02:30:14.887Z,64.11
2018-10-19T02:32:43.272Z,64.08
2018-10-19T02:35:11.669Z,64.09
2018-10-19T02:37:40.073Z,63.91
2018-10-19T02:40:09.029Z,63.89
2018-10-19T02:42:37.755Z,64.16
2018-10-19T02:45:06.545Z,64.54
2018-10-19T02:47:34.872Z,64.67
2018-10-19T02:50:03.221Z,64.09
2018-10-19T02:52:31.512Z,64.01
2018-10-19T02:54:59.901Z,64.31
2018-10-19T02:57:28.312Z,64.50
2018-10-19T02:59:56.581Z,64.56
2018-10-19T03:02:24.957Z,64.96
2018-10-19T03:04:53.371Z,65.02
2018-10-19T03:07:21.669Z,64.91
2018-10-19T03:09:49.970Z,65.15
2018-10-19T03:12:18.306Z,65.22
2018-10-19T03:14:46.632Z,64.91
2018-10-19T03:17:14.990Z,65.50
2018-10-19T03:19:43.249Z,65.03
2018-10-19T03:22:11.545Z,65.13
2018-10-19T03:24:40.021Z,65.47
2018-10-19T03:27:08.952Z,65.26
2018-10-19T03:29:37.203Z,64.56
2018-10-19T03:32:05.457Z,65.16
2018-10-19T03:34:33.757Z,64.65
2018-10-19T03:37:02.057Z,64.55
2018-10-19T03:39:30.352Z,64.60
2018-10-19T03:41:58.681Z,65.11
2018-10-19T03:44:26.970Z,65.06
2018-10-19T03:46:55.288Z,65.06
2018-10-19T03:49:23.646Z,64.99
2018-10-19T03:51:51.952Z,64.95
2018-10-19T03:54:21.258Z,65.01
2018-10-19T03:56:49.553Z,65.13
2018-10-19T03:59:17.923Z,65.05
2018-10-19T04:01:46.249Z,65.30
2018-10-19T04:04:14.557Z,65.23
2018-10-19T04:06:42.869Z,65.40
2018-10-19T04:09:13.103Z,65.70
2018-10-19T04:11:41.549Z,65.72
2018-10-19T04:14:11.241Z,64.84
2018-10-19T04:16:39.625Z,65.24
2018-10-19T04:19:08.498Z,65.19
2018-10-19T04:21:36.849Z,66.00
2018-10-19T04:24:05.442Z,65.67
2018-10-19T04:26:33.693Z,65.36
2018-10-19T04:29:02.037Z,65.49
2018-10-19T04:31:30.310Z,65.48
2018-10-19T04:33:58.669Z,65.56
2018-10-19T04:36:26.959Z,65.63
2018-10-19T04:38:55.359Z,65.45
2018-10-19T04:41:23.716Z,65.61
2018-10-19T04:43:52.009Z,65.85
2018-10-19T04:46:20.323Z,65.73
2018-10-19T04:48:48.748Z,65.88
2018-10-19T04:51:17.151Z,65.67
2018-10-19T04:53:45.485Z,65.75
2018-10-19T04:56:13.714Z,66.20
2018-10-19T04:58:42.034Z,66.36
2018-10-19T05:01:10.368Z,65.92
2018-10-19T05:03:39.109Z,65.41
2018-10-19T05:06:07.560Z,65.63
2018-10-19T05:08:35.878Z,66.09
2018-10-19T05:11:04.229Z,65.76
2018-10-19T05:13:33.000Z,66.37
2018-10-19T05:16:01.306Z,66.20
2018-10-19T05:18:29.620Z,66.10
2018-10-19T05:20:57.974Z,65.38
2018-10-19T05:23:26.269Z,66.01
2018-10-19T05:25:54.609Z,65.75
2018-10-19T05:28:22.998Z,65.89
2018-10-19T05:30:51.395Z,66.01
2018-10-19T05:33:19.722Z,65.87
2018-10-19T05:35:48.059Z,65.95
2018-10-19T05:38:16.399Z,65.99
2018-10-19T05:40:44.697Z,65.86
2018-10-19T05:43:13.119Z,66.19
2018-10-19T05:45:41.429Z,66.10
2018-10-19T05:48:09.735Z,66.01
2018-10-19T05:50:38.130Z,66.39
2018-10-19T05:53:06.519Z,66.60
2018-10-19T05:55:34.819Z,66.40
2018-10-19T05:58:03.144Z,65.90
2018-10-19T06:00:31.526Z,65.74
2018-10-19T06:02:59.902Z,66.34
2018-10-19T06:05:28.296Z,65.99
2018-10-19T06:07:56.583Z,66.61
2018-10-19T06:10:24.893Z,66.29
2018-10-19T06:12:53.249Z,66.80
2018-10-19T06:15:21.563Z,66.50
2018-10-19T06:17:49.958Z,66.36
2018-10-19T06:20:18.376Z,66.72
2018-10-19T06:22:46.786Z,66.34
2018-10-19T06:25:15.162Z,66.47
2018-10-19T06:27:43.490Z,66.65
2018-10-19T06:30:11.892Z,66.57
2018-10-19T06:32:40.216Z,66.60
2018-10-19T06:35:08.774Z,66.64
2018-10-19T06:37:37.127Z,67.16
2018-10-19T06:40:05.496Z,67.15
2018-10-19T06:42:33.830Z,66.99
2018-10-19T06:45:02.188Z,67.28
2018-10-19T06:47:30.548Z,67.21
2018-10-19T06:49:59.086Z,67.29
2018-10-19T06:52:27.333Z,67.03
2018-10-19T06:54:55.627Z,66.79
2018-10-19T06:57:24.002Z,67.38
2018-10-19T06:59:52.359Z,67.21
2018-10-19T07:02:20.664Z,67.36
2018-10-19T07:04:48.968Z,66.99
2018-10-19T07:07:17.321Z,67.35
2018-10-19T07:09:45.632Z,67.78
2018-10-19T07:12:14.017Z,67.38
2018-10-19T07:14:42.350Z,66.97
2018-10-19T07:17:10.730Z,66.98
2018-10-19T07:19:38.927Z,67.23
2018-10-19T07:22:07.368Z,67.29
2018-10-19T07:24:35.763Z,67.52
2018-10-19T07:27:04.218Z,67.82
2018-10-19T07:29:32.624Z,67.26
2018-10-19T07:32:00.990Z,67.11
2018-10-19T07:34:29.313Z,67.01
2018-10-19T07:36:57.662Z,66.60
2018-10-19T07:39:26.093Z,66.76
2018-10-19T07:41:54.443Z,66.50
2018-10-19T07:44:22.878Z,67.27
2018-10-19T07:46:51.209Z,66.66
2018-10-19T07:49:19.543Z,66.53
2018-10-19T07:51:47.900Z,67.07
2018-10-19T07:54:16.314Z,66.99
2018-10-19T07:56:44.605Z,66.33
2018-10-19T07:59:13.102Z,66.46
2018-10-19T08:01:41.391Z,66.52
2018-10-19T08:04:09.762Z,66.76
2018-10-19T08:06:38.094Z,66.36
2018-10-19T08:09:08.800Z,66.12
2018-10-19T08:11:37.274Z,66.53
2018-10-19T08:14:05.862Z,66.38
2018-10-19T08:16:34.270Z,66.74
2018-10-19T08:19:02.618Z,66.49
2018-10-19T08:21:31.152Z,66.29
2018-10-19T08:23:59.485Z,66.31
2018-10-19T08:26:27.749Z,66.44
2018-10-19T08:28:56.244Z,66.20
2018-10-19T08:31:24.525Z,66.61
2018-10-19T08:33:52.837Z,65.71
2018-10-19T08:36:21.216Z,65.57
2018-10-19T08:38:49.667Z,65.77
2018-10-19T08:41:18.104Z,65.78
2018-10-19T08:43:46.558Z,65.95
2018-10-19T08:46:48.752Z,65.42
2018-10-19T08:49:17.191Z,65.46
2018-10-19T08:51:45.526Z,65.53
2018-10-19T08:54:13.895Z,65.65
2018-10-19T08:56:42.205Z,65.58
2018-10-19T08:59:10.565Z,65.84
2018-10-19T09:01:39.042Z,66.22
2018-10-19T09:04:07.462Z,65.91
2018-10-19T09:06:35.775Z,65.57
2018-10-19T09:09:06.227Z,64.51
2018-10-19T09:11:34.628Z,64.82
2018-10-19T09:14:12.821Z,64.80
2018-10-19T09:16:41.167Z,64.65
2018-10-19T09:19:09.470Z,64.59
2018-10-19T09:21:37.856Z,64.39
2018-10-19T09:24:06.269Z,64.45
2018-10-19T09:26:34.663Z,63.76
2018-10-19T09:29:03.049Z,62.27
2018-10-19T09:31:31.427Z,62.44
2018-10-19T09:33:59.763Z,62.95
2018-10-19T09:36:28.302Z,62.68
2018-10-19T09:38:56.510Z,62.71
2018-10-19T09:41:24.823Z,63.10
2018-10-19T09:43:53.514Z,61.10
2018-10-19T09:46:21.844Z,61.05
2018-10-19T09:48:50.291Z,61.36
2018-10-19T09:51:18.669Z,61.12
2018-10-19T09:53:47.032Z,59.00
2018-10-19T09:56:15.553Z,58.45
2018-10-19T09:58:43.851Z,58.18
2018-10-19T10:01:31.881Z,57.38
2018-10-19T10:04:00.195Z,57.59
2018-10-19T10:06:29.065Z,57.18
2018-10-19T10:08:57.483Z,56.79
2018-10-19T10:11:25.824Z,55.85
2018-10-19T10:13:54.177Z,54.89
2018-10-19T10:16:22.531Z,53.49
2018-10-19T10:18:50.907Z,52.96
2018-10-19T10:21:19.287Z,52.69
2018-10-19T10:23:47.642Z,50.21
2018-10-19T10:26:16.144Z,48.52
2018-10-19T10:28:44.503Z,48.99
2018-10-19T10:31:12.921Z,49.52
2018-10-19T10:33:41.396Z,49.96
2018-10-19T10:36:09.686Z,49.36
2018-10-19T10:38:38.077Z,49.43
2018-10-19T10:41:06.387Z,49.45
2018-10-19T10:43:34.735Z,49.69
2018-10-19T10:46:03.069Z,49.14
2018-10-19T10:48:31.353Z,47.18
2018-10-19T10:50:59.734Z,46.09
2018-10-19T10:53:28.093Z,45.14
2018-10-19T10:55:56.437Z,44.53
2018-10-19T10:58:24.827Z,44.82
2018-10-19T11:00:53.270Z,44.26
2018-10-19T11:03:21.539Z,46.01
2018-10-19T11:05:49.957Z,45.91
2018-10-19T11:08:18.359Z,46.33
2018-10-19T11:10:46.978Z,46.30
2018-10-19T11:13:15.289Z,45.75
2018-10-19T11:15:43.602Z,45.51
2018-10-19T11:18:12.072Z,43.57
2018-10-19T11:20:40.591Z,43.95
2018-10-19T11:23:09.073Z,43.30
2018-10-19T11:25:37.407Z,43.89
2018-10-19T11:28:05.788Z,43.98
2018-10-19T11:30:34.302Z,45.01
2018-10-19T11:33:02.824Z,45.22
2018-10-19T11:35:31.576Z,44.96
2018-10-19T11:38:00.704Z,46.60
2018-10-19T11:40:37.047Z,47.51
2018-10-19T11:43:06.414Z,47.72
2018-10-19T11:45:35.555Z,48.41
2018-10-19T11:48:03.870Z,48.23
2018-10-19T11:50:32.317Z,48.33
2018-10-19T11:53:00.673Z,48.08
2018-10-19T11:55:28.958Z,48.74
2018-10-19T11:57:57.360Z,47.90
2018-10-19T12:00:25.678Z,47.59
2018-10-19T12:02:54.004Z,45.19
2018-10-19T12:05:22.572Z,44.69
2018-10-19T12:07:50.867Z,43.47
2018-10-19T12:10:19.141Z,43.76
2018-10-19T12:12:47.499Z,42.90
2018-10-19T12:15:16.924Z,42.13
2018-10-19T12:17:45.569Z,42.73
2018-10-19T12:20:15.317Z,43.50
2018-10-19T12:22:43.654Z,42.70
2018-10-19T12:25:12.992Z,43.40
2018-10-19T12:27:41.707Z,43.09
2018-10-19T12:30:10.979Z,42.41
2018-10-19T12:32:39.563Z,42.18
2018-10-19T12:35:09.469Z,41.22
2018-10-19T12:37:37.943Z,41.48
2018-10-19T12:40:07.203Z,41.08
2018-10-19T12:42:35.868Z,40.46
2018-10-19T12:45:04.357Z,40.50
2018-10-19T12:47:38.989Z,40.60
2018-10-19T12:50:08.021Z,40.61
2018-10-19T12:52:36.512Z,40.32
2018-10-19T12:55:05.727Z,40.52
2018-10-19T12:57:34.089Z,41.79
2018-10-19T13:00:02.461Z,42.55
2018-10-19T13:02:30.872Z,42.86
2018-10-19T13:04:59.385Z,42.52
2018-10-19T13:07:27.692Z,43.50
2018-10-19T13:09:56.056Z,44.30
2018-10-19T13:12:24.346Z,43.96
2018-10-19T13:14:52.678Z,44.11
2018-10-19T13:17:21.005Z,44.41
2018-10-19T13:19:49.381Z,44.87
2018-10-19T13:22:17.733Z,45.34
2018-10-19T13:24:46.141Z,45.11
2018-10-19T13:27:14.529Z,45.14
2018-10-19T13:29:42.776Z,44.94
2018-10-19T13:32:11.140Z,45.02
2018-10-19T13:34:39.441Z,44.95
2018-10-19T13:37:07.722Z,46.01
2018-10-19T13:39:36.136Z,45.00
2018-10-19T13:42:04.561Z,45.48
2018-10-19T13:44:32.936Z,44.88
2018-10-19T13:47:01.327Z,45.28
2018-10-19T13:49:29.691Z,44.72
2018-10-19T13:51:58.157Z,45.36
2018-10-19T13:54:26.523Z,44.90
2018-10-19T13:56:54.885Z,44.60
2018-10-19T13:59:23.356Z,44.91
2018-10-19T14:01:51.799Z,44.50
2018-10-19T14:04:20.149Z,44.18
2018-10-19T14:06:48.460Z,44.22
2018-10-19T14:09:17.101Z,43.60
2018-10-19T14:11:45.396Z,43.42
2018-10-19T14:14:13.864Z,42.83
2018-10-19T14:16:42.177Z,42.69
2018-10-19T14:19:10.736Z,42.78
2018-10-19T14:21:39.029Z,43.22
2018-10-19T14:24:07.477Z,43.32
2018-10-19T14:26:35.822Z,43.75
2018-10-19T14:29:04.218Z,43.86
2018-10-19T14:31:32.590Z,44.68
2018-10-19T14:34:01.001Z,43.88
2018-10-19T14:36:29.355Z,44.09
2018-10-19T14:38:57.786Z,44.08
2018-10-19T14:41:26.209Z,44.11
2018-10-19T14:43:54.591Z,44.29
2018-10-19T14:46:22.960Z,44.78
2018-10-19T14:48:51.295Z,44.08
2018-10-19T14:51:19.710Z,44.77
2018-10-19T14:53:48.125Z,45.19
2018-10-19T14:56:16.582Z,45.36
2018-10-19T14:58:44.962Z,45.35
2018-10-19T15:01:13.596Z,45.23
2018-10-19T15:03:41.897Z,44.65
2018-10-19T15:06:10.469Z,45.66
2018-10-19T15:08:39.015Z,45.94
2018-10-19T15:11:07.389Z,46.10
2018-10-19T15:13:35.693Z,46.40
2018-10-19T15:16:03.982Z,46.26
2018-10-19T15:18:32.367Z,45.71
2018-10-19T15:21:00.747Z,46.92
2018-10-19T15:23:29.068Z,46.42
2018-10-19T15:25:57.398Z,46.25
2018-10-19T15:28:25.835Z,46.26
2018-10-19T15:30:54.188Z,46.48
2018-10-19T15:33:22.592Z,46.94
2018-10-19T15:35:50.995Z,46.87
2018-10-19T15:38:19.361Z,47.08
2018-10-19T15:40:47.726Z,47.17
2018-10-19T15:43:16.080Z,47.27
2018-10-19T15:45:44.406Z,47.44
2018-10-19T15:48:12.987Z,47.38
2018-10-19T15:50:41.368Z,47.65
2018-10-19T15:53:09.730Z,47.62
2018-10-19T15:55:38.093Z,47.48
2018-10-19T15:58:06.659Z,48.19
2018-10-19T16:00:35.193Z,47.94
2018-10-19T16:03:03.593Z,48.21
2018-10-19T16:05:31.923Z,48.53
2018-10-19T16:08:00.330Z,47.86
2018-10-19T16:10:28.780Z,48.01
2018-10-19T16:12:57.186Z,48.72
2018-10-19T16:15:25.492Z,49.07
2018-10-19T16:17:53.818Z,48.97
2018-10-19T16:20:22.196Z,48.92
2018-10-19T16:22:50.558Z,48.91
2018-10-19T16:25:18.949Z,48.94
2018-10-19T16:27:47.364Z,48.34
2018-10-19T16:30:15.776Z,48.23
2018-10-19T16:32:44.143Z,48.85
2018-10-19T16:35:12.504Z,48.91
2018-10-19T16:37:40.940Z,49.07
2018-10-19T16:40:09.317Z,49.68
2018-10-19T16:42:37.813Z,49.14
2018-10-19T16:45:07.389Z,49.43
2018-10-19T16:47:35.704Z,49.40
2018-10-19T16:50:04.210Z,49.46
2018-10-19T16:52:32.642Z,49.69
2018-10-19T16:55:00.928Z,49.82
2018-10-19T16:57:29.310Z,50.05
2018-10-19T16:59:57.766Z,49.81
2018-10-19T17:02:26.254Z,49.73
2018-10-19T17:04:54.724Z,50.21
2018-10-19T17:07:23.302Z,50.37
2018-10-19T17:09:51.873Z,50.04
2018-10-19T17:12:20.544Z,50.12
2018-10-19T17:14:49.150Z,50.33
2018-10-19T17:17:17.720Z,50.00
2018-10-19T17:19:46.410Z,49.82
2018-10-19T17:22:14.866Z,49.83
2018-10-19T17:24:43.498Z,50.00
2018-10-19T17:27:12.124Z,49.86
2018-10-19T17:29:40.569Z,49.82
2018-10-19T17:32:09.585Z,50.08
2018-10-19T17:34:38.176Z,50.05
2018-10-19T17:37:06.769Z,50.25
2018-10-19T17:39:35.251Z,51.01
2018-10-19T17:42:03.856Z,50.59
2018-10-19T17:44:38.612Z,50.93
2018-10-19T17:47:07.189Z,51.26
2018-10-19T17:49:35.744Z,51.54
2018-10-19T17:52:04.281Z,51.88
2018-10-19T17:54:32.905Z,51.43
2018-10-19T17:57:01.370Z,51.66
2018-10-19T17:59:30.138Z,51.67
2018-10-19T18:01:58.887Z,51.69
2018-10-19T18:04:27.309Z,51.58
2018-10-19T18:06:56.118Z,51.90
2018-10-19T18:09:24.776Z,52.01
2018-10-19T18:11:54.201Z,52.63
2018-10-19T18:14:22.756Z,52.81
2018-10-19T18:16:51.162Z,52.83
2018-10-19T18:19:19.547Z,52.97
2018-10-19T18:21:48.095Z,53.54
2018-10-19T18:24:16.544Z,53.23
2018-10-19T18:26:45.040Z,53.41
2018-10-19T18:29:13.427Z,53.83
2018-10-19T18:31:41.776Z,54.14
2018-10-19T18:34:10.210Z,54.62
2018-10-19T18:36:39.066Z,55.11
2018-10-19T18:39:10.855Z,55.89
2018-10-19T18:41:39.356Z,55.99
2018-10-19T18:44:08.560Z,55.93
2018-10-19T18:46:37.283Z,56.46
2018-10-19T18:49:06.297Z,56.26
2018-10-19T18:51:34.649Z,56.36
2018-10-19T18:54:03.294Z,56.29
2018-10-19T18:56:32.204Z,55.70
2018-10-19T18:59:00.793Z,55.86
2018-10-19T19:01:29.320Z,56.21
2018-10-19T19:03:57.788Z,56.46
2018-10-19T19:06:26.343Z,56.05
2018-10-19T19:08:54.749Z,56.47
2018-10-19T19:11:23.398Z,57.30
2018-10-19T19:13:51.835Z,57.31
2018-10-19T19:16:25.695Z,57.22
2018-10-19T19:18:54.096Z,57.53
2018-10-19T19:21:22.543Z,56.84
2018-10-19T19:23:56.246Z,57.14
2018-10-19T19:26:25.914Z,56.73
2018-10-19T19:28:54.564Z,56.96
2018-10-19T19:31:22.925Z,56.71
2018-10-19T19:34:54.455Z,56.68
2018-10-19T19:37:22.902Z,56.19
2018-10-19T19:39:51.685Z,55.97
2018-10-19T19:42:25.312Z,56.15
2018-10-19T19:44:53.973Z,55.99
2018-10-19T19:47:27.799Z,56.25
2018-10-19T19:50:00.435Z,55.91
2018-10-19T19:52:28.897Z,55.75
2018-10-19T19:54:57.485Z,55.57
2018-10-19T19:57:26.496Z,55.02
2018-10-19T19:59:55.511Z,55.29
2018-10-19T20:02:24.144Z,54.70
2018-10-19T20:04:52.620Z,54.75
2018-10-19T20:07:21.222Z,54.70
2018-10-19T20:09:49.860Z,54.66
2018-10-19T20:12:18.424Z,54.76
2018-10-19T20:14:47.040Z,54.61
2018-10-19T20:17:15.816Z,54.38
2018-10-19T20:19:44.590Z,54.24
2018-10-19T20:22:13.096Z,53.83
2018-10-19T20:24:41.533Z,54.21
2018-10-19T20:27:09.920Z,54.49
2018-10-19T20:29:38.418Z,53.91
2018-10-19T20:32:06.818Z,54.06
2018-10-19T20:34:35.132Z,54.52
2018-10-19T20:37:03.623Z,54.64
2018-10-19T20:39:32.049Z,54.83
2018-10-19T20:42:00.622Z,55.03
2018-10-19T20:44:29.020Z,55.02
2018-10-19T20:46:57.485Z,54.74
2018-10-19T20:49:25.827Z,55.79
2018-10-19T20:51:54.290Z,56.32
2018-10-19T20:54:22.819Z,56.95
2018-10-19T20:56:51.186Z,56.90
2018-10-19T20:59:19.597Z,57.42
2018-10-19T21:01:48.066Z,57.81
2018-10-19T21:04:16.473Z,58.05
2018-10-19T21:06:44.834Z,58.45
2018-10-19T21:09:13.693Z,58.13
2018-10-19T21:11:42.172Z,57.46
2018-10-19T21:14:10.792Z,56.58
2018-10-19T21:16:39.195Z,56.44
2018-10-19T21:19:07.583Z,56.46
2018-10-19T21:21:36.053Z,56.51
2018-10-19T21:24:04.387Z,56.54
2018-10-19T21:26:32.889Z,56.32
2018-10-19T21:29:01.302Z,56.27
2018-10-19T21:31:29.743Z,56.62
2018-10-19T21:33:58.094Z,56.26
2018-10-19T21:36:26.489Z,55.67
2018-10-19T21:38:54.977Z,55.25
2018-10-19T21:41:23.343Z,55.57
2018-10-19T21:43:51.857Z,55.78
2018-10-19T21:46:20.167Z,55.27
2018-10-19T21:48:48.499Z,55.71
2018-10-19T21:51:16.980Z,55.48
2018-10-19T21:53:45.371Z,55.43
2018-10-19T21:56:13.717Z,55.81
2018-10-19T21:58:42.107Z,55.68
2018-10-19T22:01:10.380Z,55.57
2018-10-19T22:03:39.724Z,55.65
2018-10-19T22:06:08.782Z,55.20
2018-10-19T22:08:37.235Z,55.04
2018-10-19T22:11:05.826Z,55.13
2018-10-19T22:13:34.200Z,55.03
2018-10-19T22:16:02.523Z,55.14
2018-10-19T22:18:30.852Z,55.17
2018-10-19T22:20:59.245Z,55.00
2018-10-19T22:23:27.589Z,55.71
2018-10-19T22:25:56.805Z,55.52
2018-10-19T22:28:25.216Z,55.67
2018-10-19T22:30:54.860Z,55.85
2018-10-19T22:33:23.288Z,55.97
2018-10-19T22:35:51.662Z,55.77
2018-10-19T22:38:20.000Z,56.12
2018-10-19T22:40:48.432Z,55.35
2018-10-19T22:43:16.920Z,55.41
2018-10-19T22:45:45.163Z,55.70
2018-10-19T22:48:13.552Z,55.18
2018-10-19T22:50:42.044Z,55.35
2018-10-19T22:53:10.521Z,55.65
2018-10-19T22:55:38.794Z,55.97
2018-10-19T22:58:07.184Z,55.85
2018-10-19T23:00:35.552Z,55.89
2018-10-19T23:03:03.846Z,56.24
2018-10-19T23:05:32.246Z,56.09
2018-10-19T23:08:00.561Z,56.11
2018-10-19T23:10:28.992Z,55.89
2018-10-19T23:12:57.374Z,55.94
2018-10-19T23:15:25.705Z,55.90
2018-10-19T23:17:54.236Z,56.25
2018-10-19T23:20:22.592Z,56.09
2018-10-19T23:22:50.908Z,56.46
2018-10-19T23:25:19.277Z,56.36
2018-10-19T23:27:47.822Z,56.20
2018-10-19T23:30:16.223Z,56.46
2018-10-19T23:32:44.604Z,56.33
2018-10-19T23:35:13.042Z,56.37
2018-10-19T23:37:41.388Z,56.42
2018-10-19T23:40:09.866Z,56.12
2018-10-19T23:42:38.195Z,56.65
2018-10-19T23:45:07.563Z,56.53
2018-10-19T23:47:35.855Z,56.71
2018-10-19T23:50:04.280Z,57.13
2018-10-19T23:52:32.718Z,56.93
2018-10-19T23:55:01.245Z,56.94
2018-10-19T23:57:29.631Z,56.58
2018-10-19T23:59:57.948Z,56.47
